Time;durP1;ratioP1;P1;durP2;ratioP2;P2;SDS_P1;SDS_P2;PMS_P1;PMS_P2;Temp;Humidity;BMP_temperature;BMP_pressure;BME280_temperature;BME280_humidity;BME280_pressure;Samples;Min_cycle;Max_cycle;Signal;HPM_P1;HPM_P2
2022/03/25 00:01:38;;;;;;;;;;;21.40;28.70;;;;;;484632;246;2439;-38
2022/03/25 00:03:39;;;;;;;;;;;21.40;28.70;;;;;;484335;246;2215;-38
2022/03/25 00:05:40;;;;;;;;;;;21.50;28.70;;;;;;484703;246;1043;-38
2022/03/25 00:07:42;;;;;;;;;;;21.50;28.70;;;;;;484651;246;1221;-38
2022/03/25 00:09:43;;;;;;;;;;;21.50;28.70;;;;;;484258;246;1045;-38
2022/03/25 00:11:44;;;;;;;;;;;21.50;28.70;;;;;;484460;245;1209;-38
2022/03/25 00:13:46;;;;;;;;;;;21.50;28.70;;;;;;484427;246;1143;-38
2022/03/25 00:15:47;;;;;;;;;;;21.50;28.70;;;;;;484396;246;979;-38
2022/03/25 00:17:48;;;;;;;;;;;21.50;28.70;;;;;;484493;246;1068;-38
2022/03/25 00:19:50;;;;;;;;;;;21.40;28.70;;;;;;484242;246;1089;-38
2022/03/25 00:21:51;;;;;;;;;;;21.40;28.80;;;;;;484315;246;1137;-38
2022/03/25 00:23:53;;;;;;;;;;;21.40;28.70;;;;;;484702;246;2113;-38
2022/03/25 00:25:54;;;;;;;;;;;21.50;28.80;;;;;;484714;246;1076;-38
2022/03/25 00:27:55;;;;;;;;;;;21.40;28.80;;;;;;484524;246;965;-38
2022/03/25 00:29:56;;;;;;;;;;;21.40;28.80;;;;;;484745;246;1082;-38
2022/03/25 00:31:58;;;;;;;;;;;21.40;28.70;;;;;;484655;246;1599;-38
2022/03/25 00:33:59;;;;;;;;;;;21.40;28.80;;;;;;484351;246;1222;-38
2022/03/25 00:36:00;;;;;;;;;;;21.40;28.80;;;;;;484686;246;1186;-38
2022/03/25 00:38:02;;;;;;;;;;;21.40;28.80;;;;;;484736;246;1061;-38
2022/03/25 00:40:03;;;;;;;;;;;21.40;28.70;;;;;;484426;246;1060;-38
2022/03/25 00:42:05;;;;;;;;;;;21.40;28.70;;;;;;484236;246;2128;-38
2022/03/25 00:44:06;;;;;;;;;;;21.40;28.80;;;;;;484214;246;1097;-38
2022/03/25 00:46:07;;;;;;;;;;;21.40;28.70;;;;;;484268;246;2044;-38
2022/03/25 00:48:08;;;;;;;;;;;21.40;28.70;;;;;;484375;246;1180;-38
2022/03/25 00:50:10;;;;;;;;;;;21.40;28.70;;;;;;484293;246;1044;-38
2022/03/25 00:52:11;;;;;;;;;;;21.40;28.80;;;;;;484382;246;1965;-38
2022/03/25 00:54:12;;;;;;;;;;;21.40;28.80;;;;;;484706;246;1023;-38
2022/03/25 00:56:14;;;;;;;;;;;21.40;28.80;;;;;;484365;246;1274;-38
2022/03/25 00:58:15;;;;;;;;;;;21.40;28.80;;;;;;484653;246;1193;-38
2022/03/25 01:00:16;;;;;;;;;;;21.40;28.80;;;;;;484246;246;1078;-38
2022/03/25 01:02:18;;;;;;;;;;;21.40;28.80;;;;;;484221;246;2132;-38
2022/03/25 01:04:19;;;;;;;;;;;21.40;28.80;;;;;;484271;246;1211;-38
2022/03/25 01:06:21;;;;;;;;;;;21.40;28.80;;;;;;484354;246;1242;-38
2022/03/25 01:08:22;;;;;;;;;;;21.40;28.80;;;;;;484715;246;997;-38
2022/03/25 01:10:23;;;;;;;;;;;21.40;28.80;;;;;;484523;246;1231;-38
2022/03/25 01:12:25;;;;;;;;;;;21.40;28.80;;;;;;484210;246;1354;-38
2022/03/25 01:14:27;;;;;;;;;;;21.40;28.80;;;;;;484550;246;1047;-38
2022/03/25 01:16:27;;;;;;;;;;;21.40;28.80;;;;;;484560;246;1474;-38
2022/03/25 01:18:29;;;;;;;;;;;21.40;28.80;;;;;;484493;246;1181;-38
2022/03/25 01:20:30;;;;;;;;;;;21.40;28.80;;;;;;484671;246;1326;-38
2022/03/25 01:22:31;;;;;;;;;;;21.40;28.80;;;;;;484537;246;2133;-38
2022/03/25 01:24:33;;;;;;;;;;;21.40;28.80;;;;;;484729;246;1091;-38
2022/03/25 01:26:34;;;;;;;;;;;21.40;28.80;;;;;;484217;246;1227;-38
2022/03/25 01:28:36;;;;;;;;;;;21.40;28.90;;;;;;484587;246;1038;-38
2022/03/25 01:30:37;;;;;;;;;;;21.40;28.90;;;;;;484684;246;1266;-39
2022/03/25 01:32:38;;;;;;;;;;;21.40;28.80;;;;;;484673;246;1169;-38
2022/03/25 01:34:39;;;;;;;;;;;21.40;28.90;;;;;;484314;246;1084;-38
2022/03/25 01:36:41;;;;;;;;;;;21.40;28.80;;;;;;484426;246;1236;-38
2022/03/25 01:38:42;;;;;;;;;;;21.40;28.80;;;;;;484690;246;1090;-38
2022/03/25 01:40:43;;;;;;;;;;;21.40;28.90;;;;;;484275;246;1391;-38
2022/03/25 01:42:45;;;;;;;;;;;21.40;28.90;;;;;;484465;246;2200;-38
2022/03/25 01:44:46;;;;;;;;;;;21.40;28.80;;;;;;484713;246;1065;-38
2022/03/25 01:46:47;;;;;;;;;;;21.50;28.80;;;;;;484468;246;1164;-38
2022/03/25 01:48:49;;;;;;;;;;;21.40;28.80;;;;;;484556;246;1116;-38
2022/03/25 01:50:50;;;;;;;;;;;21.40;28.80;;;;;;484679;246;1132;-38
2022/03/25 01:52:51;;;;;;;;;;;21.40;28.80;;;;;;484634;246;1147;-38
2022/03/25 01:54:53;;;;;;;;;;;21.40;28.80;;;;;;484262;246;1204;-38
2022/03/25 01:56:54;;;;;;;;;;;21.40;28.80;;;;;;484182;246;1294;-38
2022/03/25 01:58:55;;;;;;;;;;;21.40;28.90;;;;;;484536;246;1134;-38
2022/03/25 02:00:56;;;;;;;;;;;21.40;28.90;;;;;;484365;246;1345;-38
2022/03/25 02:02:59;;;;;;;;;;;21.40;28.80;;;;;;484294;246;2192;-38
2022/03/25 02:05:01;;;;;;;;;;;21.40;28.80;;;;;;484308;246;1221;-38
2022/03/25 02:07:02;;;;;;;;;;;21.40;28.80;;;;;;484396;246;1321;-38
2022/03/25 02:09:03;;;;;;;;;;;21.40;28.80;;;;;;484279;246;1011;-38
2022/03/25 02:11:06;;;;;;;;;;;21.50;28.80;;;;;;484623;246;1497;-38
2022/03/25 02:13:06;;;;;;;;;;;21.40;28.80;;;;;;484653;246;1530;-38
2022/03/25 02:15:08;;;;;;;;;;;21.40;28.80;;;;;;484576;246;1238;-38
2022/03/25 02:17:09;;;;;;;;;;;21.40;28.90;;;;;;484637;246;1293;-38
2022/03/25 02:19:10;;;;;;;;;;;21.40;28.90;;;;;;484574;246;1181;-38
2022/03/25 02:21:12;;;;;;;;;;;21.40;28.90;;;;;;484653;246;1267;-38
2022/03/25 02:23:13;;;;;;;;;;;21.40;28.90;;;;;;484588;246;2199;-38
2022/03/25 02:25:14;;;;;;;;;;;21.40;28.80;;;;;;484718;246;1114;-38
2022/03/25 02:27:16;;;;;;;;;;;21.40;28.80;;;;;;484207;246;1200;-38
2022/03/25 02:29:17;;;;;;;;;;;21.40;28.90;;;;;;484218;246;2313;-38
2022/03/25 02:31:19;;;;;;;;;;;21.40;28.90;;;;;;484679;241;1206;-38
2022/03/25 02:33:19;;;;;;;;;;;21.40;28.80;;;;;;484704;246;1064;-38
2022/03/25 02:35:21;;;;;;;;;;;21.40;28.80;;;;;;484319;246;1092;-38
2022/03/25 02:37:24;;;;;;;;;;;21.40;28.80;;;;;;484652;246;1337;-38
2022/03/25 02:39:23;;;;;;;;;;;21.40;28.80;;;;;;484113;246;2009;-38
2022/03/25 02:41:25;;;;;;;;;;;21.40;28.80;;;;;;484267;245;1237;-38
2022/03/25 02:43:26;;;;;;;;;;;21.40;28.80;;;;;;484598;246;2132;-38
2022/03/25 02:45:27;;;;;;;;;;;21.40;28.90;;;;;;484515;246;1084;-38
2022/03/25 02:47:29;;;;;;;;;;;21.50;28.90;;;;;;484402;246;1222;-38
2022/03/25 02:49:30;;;;;;;;;;;21.40;28.90;;;;;;484522;246;1286;-38
2022/03/25 02:51:31;;;;;;;;;;;21.40;28.80;;;;;;484189;246;1406;-38
2022/03/25 02:53:33;;;;;;;;;;;21.40;28.90;;;;;;484666;246;1113;-38
2022/03/25 02:55:34;;;;;;;;;;;21.40;28.90;;;;;;484670;246;1058;-39
2022/03/25 02:57:35;;;;;;;;;;;21.40;28.90;;;;;;484716;246;1130;-38
2022/03/25 02:59:36;;;;;;;;;;;21.40;28.90;;;;;;484737;246;1155;-38
2022/03/25 03:01:38;;;;;;;;;;;21.40;28.90;;;;;;484219;246;1364;-38
2022/03/25 03:03:40;;;;;;;;;;;21.40;28.90;;;;;;484257;246;2204;-38
2022/03/25 03:05:40;;;;;;;;;;;21.40;28.90;;;;;;484265;246;2096;-38
2022/03/25 03:07:42;;;;;;;;;;;21.40;28.90;;;;;;484219;246;1327;-38
2022/03/25 03:09:43;;;;;;;;;;;21.40;28.90;;;;;;484577;246;1303;-38
2022/03/25 03:11:44;;;;;;;;;;;21.30;28.90;;;;;;484172;246;1162;-38
2022/03/25 03:13:46;;;;;;;;;;;21.40;28.90;;;;;;484715;246;1167;-38
2022/03/25 03:15:47;;;;;;;;;;;21.40;28.90;;;;;;484686;246;1312;-38
2022/03/25 03:17:49;;;;;;;;;;;21.40;28.90;;;;;;484181;246;1258;-38
2022/03/25 03:19:51;;;;;;;;;;;21.40;28.90;;;;;;484450;246;1181;-38
2022/03/25 03:21:53;;;;;;;;;;;21.40;28.90;;;;;;484303;246;1286;-38
2022/03/25 03:23:53;;;;;;;;;;;21.40;28.80;;;;;;484683;246;2154;-38
2022/03/25 03:25:55;;;;;;;;;;;21.40;28.80;;;;;;484546;246;1277;-38
2022/03/25 03:27:56;;;;;;;;;;;21.40;28.80;;;;;;484249;246;1212;-38
2022/03/25 03:29:58;;;;;;;;;;;21.40;28.80;;;;;;484487;246;1115;-38
2022/03/25 03:31:58;;;;;;;;;;;21.40;28.80;;;;;;484382;246;2214;-38
2022/03/25 03:34:00;;;;;;;;;;;21.40;28.90;;;;;;484457;246;1059;-38
2022/03/25 03:36:01;;;;;;;;;;;21.40;28.90;;;;;;484261;246;1185;-38
2022/03/25 03:38:03;;;;;;;;;;;21.40;28.90;;;;;;484672;246;1191;-38
2022/03/25 03:40:05;;;;;;;;;;;21.40;28.80;;;;;;484508;246;1092;-38
2022/03/25 03:42:06;;;;;;;;;;;21.40;28.80;;;;;;484200;246;2265;-39
2022/03/25 03:44:07;;;;;;;;;;;21.40;28.90;;;;;;484625;246;2180;-39
2022/03/25 03:46:08;;;;;;;;;;;21.40;28.90;;;;;;484491;246;1230;-38
2022/03/25 03:48:11;;;;;;;;;;;21.40;28.90;;;;;;484174;246;1177;-38
2022/03/25 03:50:11;;;;;;;;;;;21.40;28.90;;;;;;484367;246;2201;-38
2022/03/25 03:52:13;;;;;;;;;;;21.40;28.80;;;;;;484382;246;1626;-38
2022/03/25 03:54:14;;;;;;;;;;;21.40;28.80;;;;;;484559;246;1076;-38
2022/03/25 03:56:15;;;;;;;;;;;21.40;28.90;;;;;;484195;246;1238;-38
2022/03/25 03:58:17;;;;;;;;;;;21.40;28.90;;;;;;484302;246;1099;-39
2022/03/25 04:00:20;;;;;;;;;;;21.40;28.90;;;;;;484247;246;1054;-39
2022/03/25 04:02:19;;;;;;;;;;;21.40;28.90;;;;;;484135;246;2116;-38
2022/03/25 04:04:21;;;;;;;;;;;21.40;28.90;;;;;;484718;246;2184;-38
2022/03/25 04:06:22;;;;;;;;;;;21.40;28.90;;;;;;484249;246;1231;-38
2022/03/25 04:08:24;;;;;;;;;;;21.40;28.90;;;;;;484459;246;1022;-38
2022/03/25 04:10:25;;;;;;;;;;;21.40;28.90;;;;;;484630;246;1140;-38
2022/03/25 04:12:26;;;;;;;;;;;21.40;28.90;;;;;;484426;246;968;-38
2022/03/25 04:14:28;;;;;;;;;;;21.40;28.90;;;;;;484255;246;1058;-38
2022/03/25 04:16:29;;;;;;;;;;;21.40;28.90;;;;;;484444;246;1262;-38
2022/03/25 04:18:31;;;;;;;;;;;21.40;28.90;;;;;;484722;246;1095;-38
2022/03/25 04:20:32;;;;;;;;;;;21.40;28.90;;;;;;484368;246;1376;-38
2022/03/25 04:22:33;;;;;;;;;;;21.40;29.00;;;;;;484429;246;1035;-38
2022/03/25 04:24:34;;;;;;;;;;;21.40;28.90;;;;;;484701;246;2188;-38
2022/03/25 04:26:36;;;;;;;;;;;21.40;28.90;;;;;;484331;246;1136;-38
2022/03/25 04:28:37;;;;;;;;;;;21.40;28.90;;;;;;484726;246;1018;-38
2022/03/25 04:30:40;;;;;;;;;;;21.40;28.90;;;;;;484706;246;982;-38
2022/03/25 04:32:40;;;;;;;;;;;21.40;28.90;;;;;;484090;246;1839;-38
2022/03/25 04:34:41;;;;;;;;;;;21.40;28.90;;;;;;484512;246;1070;-38
2022/03/25 04:36:42;;;;;;;;;;;21.40;28.90;;;;;;484190;246;1220;-38
2022/03/25 04:38:43;;;;;;;;;;;21.40;28.90;;;;;;484255;246;1077;-38
2022/03/25 04:40:45;;;;;;;;;;;21.40;29.00;;;;;;484232;246;1273;-38
2022/03/25 04:42:46;;;;;;;;;;;21.30;28.90;;;;;;484629;246;1261;-38
2022/03/25 04:44:47;;;;;;;;;;;21.40;29.00;;;;;;484472;246;2195;-38
2022/03/25 04:46:49;;;;;;;;;;;21.40;29.00;;;;;;484302;246;1359;-38
2022/03/25 04:48:50;;;;;;;;;;;21.30;28.90;;;;;;484239;246;1040;-38
2022/03/25 04:50:51;;;;;;;;;;;21.40;29.00;;;;;;484351;246;1388;-38
2022/03/25 04:52:53;;;;;;;;;;;21.40;29.00;;;;;;484430;246;1200;-38
2022/03/25 04:54:54;;;;;;;;;;;21.40;29.00;;;;;;484629;246;1011;-38
2022/03/25 04:56:55;;;;;;;;;;;21.40;29.00;;;;;;484301;246;1310;-38
2022/03/25 04:58:57;;;;;;;;;;;21.40;28.90;;;;;;484606;246;1081;-38
2022/03/25 05:00:58;;;;;;;;;;;21.40;29.00;;;;;;484656;246;1080;-38
2022/03/25 05:02:59;;;;;;;;;;;21.40;29.00;;;;;;484681;246;1080;-38
2022/03/25 05:05:01;;;;;;;;;;;21.40;28.90;;;;;;484232;246;2192;-38
2022/03/25 05:07:02;;;;;;;;;;;21.40;28.90;;;;;;484278;246;1192;-38
2022/03/25 05:09:03;;;;;;;;;;;21.40;28.90;;;;;;484259;246;1056;-38
2022/03/25 05:11:04;;;;;;;;;;;21.40;28.90;;;;;;484395;246;1034;-38
2022/03/25 05:13:06;;;;;;;;;;;21.40;28.90;;;;;;484244;246;1074;-38
2022/03/25 05:15:07;;;;;;;;;;;21.40;29.00;;;;;;484262;246;954;-38
2022/03/25 05:17:08;;;;;;;;;;;21.40;29.00;;;;;;484463;246;1171;-38
2022/03/25 05:19:10;;;;;;;;;;;21.40;28.90;;;;;;484570;246;1071;-38
2022/03/25 05:21:12;;;;;;;;;;;21.40;29.00;;;;;;484125;246;1178;-38
2022/03/25 05:23:13;;;;;;;;;;;21.40;29.00;;;;;;484291;246;1067;-38
2022/03/25 05:25:14;;;;;;;;;;;21.40;28.90;;;;;;484285;246;2117;-38
2022/03/25 05:27:16;;;;;;;;;;;21.40;28.90;;;;;;484566;246;1218;-38
2022/03/25 05:29:17;;;;;;;;;;;21.40;28.90;;;;;;484569;246;1103;-38
2022/03/25 05:31:19;;;;;;;;;;;21.40;28.90;;;;;;484260;246;1331;-38
2022/03/25 05:33:20;;;;;;;;;;;21.40;28.90;;;;;;484270;246;1268;-38
2022/03/25 05:35:21;;;;;;;;;;;21.40;28.90;;;;;;484602;246;1008;-38
2022/03/25 05:37:24;;;;;;;;;;;21.40;29.00;;;;;;483991;246;1215;-38
2022/03/25 05:39:24;;;;;;;;;;;21.40;28.90;;;;;;484270;246;2055;-38
2022/03/25 05:41:25;;;;;;;;;;;21.40;29.00;;;;;;484107;246;2447;-38
2022/03/25 05:43:28;;;;;;;;;;;21.40;29.00;;;;;;484196;246;1005;-38
2022/03/25 05:45:28;;;;;;;;;;;21.40;29.00;;;;;;483950;246;2488;-38
2022/03/25 05:47:30;;;;;;;;;;;21.40;28.90;;;;;;484147;246;1663;-38
2022/03/25 05:49:32;;;;;;;;;;;21.40;28.90;;;;;;484214;246;1022;-38
2022/03/25 05:51:33;;;;;;;;;;;21.40;28.90;;;;;;484139;246;1252;-38
2022/03/25 05:53:34;;;;;;;;;;;21.50;28.90;;;;;;484105;246;1071;-38
2022/03/25 05:55:36;;;;;;;;;;;21.40;28.90;;;;;;484001;246;1273;-38
2022/03/25 05:57:37;;;;;;;;;;;21.40;28.90;;;;;;484106;246;1087;-38
2022/03/25 05:59:38;;;;;;;;;;;21.40;28.90;;;;;;484182;246;1038;-38
2022/03/25 06:01:40;;;;;;;;;;;21.40;28.90;;;;;;483922;242;1174;-38
2022/03/25 06:03:41;;;;;;;;;;;21.40;28.90;;;;;;484165;246;1083;-38
2022/03/25 06:05:42;;;;;;;;;;;21.40;28.90;;;;;;484272;246;2108;-38
2022/03/25 06:07:44;;;;;;;;;;;21.40;28.90;;;;;;484002;246;1147;-38
2022/03/25 06:09:45;;;;;;;;;;;21.40;29.00;;;;;;484432;246;1054;-38
2022/03/25 06:11:47;;;;;;;;;;;21.40;28.90;;;;;;483924;246;1562;-38
2022/03/25 06:13:48;;;;;;;;;;;21.40;28.90;;;;;;484336;246;1089;-38
2022/03/25 06:15:49;;;;;;;;;;;21.50;28.90;;;;;;484402;246;1408;-38
2022/03/25 06:17:51;;;;;;;;;;;21.40;28.90;;;;;;484507;246;1186;-38
2022/03/25 06:19:52;;;;;;;;;;;21.40;28.90;;;;;;484047;246;1055;-38
2022/03/25 06:21:55;;;;;;;;;;;21.40;29.00;;;;;;483938;246;1350;-38
2022/03/25 06:23:55;;;;;;;;;;;21.40;29.00;;;;;;483911;246;1497;-38
2022/03/25 06:25:56;;;;;;;;;;;21.40;28.90;;;;;;484163;246;2180;-38
2022/03/25 06:27:57;;;;;;;;;;;21.40;29.00;;;;;;483994;246;1083;-38
2022/03/25 06:29:59;;;;;;;;;;;21.40;28.90;;;;;;484240;246;1079;-38
2022/03/25 06:32:00;;;;;;;;;;;21.40;28.90;;;;;;483821;241;1373;-38
2022/03/25 06:34:03;;;;;;;;;;;21.30;29.00;;;;;;484079;246;1018;-38
2022/03/25 06:36:03;;;;;;;;;;;21.30;29.00;;;;;;483793;246;2184;-38
2022/03/25 06:38:04;;;;;;;;;;;21.40;29.00;;;;;;483981;246;1201;-38
2022/03/25 06:40:07;;;;;;;;;;;21.40;29.00;;;;;;483980;246;1051;-38
2022/03/25 06:42:08;;;;;;;;;;;21.40;29.00;;;;;;483790;246;2062;-38
2022/03/25 06:44:09;;;;;;;;;;;21.40;29.00;;;;;;483730;246;2200;-38
2022/03/25 06:46:10;;;;;;;;;;;21.40;29.00;;;;;;483881;246;1661;-38
2022/03/25 06:48:12;;;;;;;;;;;21.40;29.00;;;;;;483992;246;1275;-38
2022/03/25 06:50:13;;;;;;;;;;;21.40;29.00;;;;;;483977;246;1046;-38
2022/03/25 06:52:15;;;;;;;;;;;21.40;29.00;;;;;;483817;246;1822;-38
2022/03/25 06:54:16;;;;;;;;;;;21.40;29.00;;;;;;484011;246;1083;-38
2022/03/25 06:56:17;;;;;;;;;;;21.40;29.00;;;;;;484032;246;1227;-38
2022/03/25 06:58:19;;;;;;;;;;;21.40;29.00;;;;;;484141;246;1045;-38
2022/03/25 07:00:20;;;;;;;;;;;21.40;29.00;;;;;;483924;246;1263;-38
2022/03/25 07:02:21;;;;;;;;;;;21.40;29.00;;;;;;483863;246;1185;-38
2022/03/25 07:04:23;;;;;;;;;;;21.40;29.00;;;;;;483916;246;2116;-38
2022/03/25 07:06:24;;;;;;;;;;;21.40;29.00;;;;;;483740;246;1126;-38
2022/03/25 07:08:25;;;;;;;;;;;21.40;29.00;;;;;;483816;246;1396;-38
2022/03/25 07:10:27;;;;;;;;;;;21.40;28.90;;;;;;484022;246;1269;-38
2022/03/25 07:12:28;;;;;;;;;;;21.40;29.00;;;;;;483818;246;1240;-38
2022/03/25 07:14:30;;;;;;;;;;;21.40;29.00;;;;;;484296;246;1076;-38
2022/03/25 07:16:31;;;;;;;;;;;21.40;29.00;;;;;;483773;246;1322;-38
2022/03/25 07:18:32;;;;;;;;;;;21.40;29.00;;;;;;483832;246;1095;-38
2022/03/25 07:20:34;;;;;;;;;;;21.40;29.00;;;;;;483732;246;1112;-38
2022/03/25 07:22:36;;;;;;;;;;;21.40;29.00;;;;;;483793;246;1210;-38
2022/03/25 07:24:36;;;;;;;;;;;21.40;28.90;;;;;;483745;246;2129;-38
2022/03/25 07:26:38;;;;;;;;;;;21.40;29.00;;;;;;483801;246;1239;-38
2022/03/25 07:28:39;;;;;;;;;;;21.40;28.90;;;;;;483576;246;1080;-39
2022/03/25 07:30:41;;;;;;;;;;;21.40;28.90;;;;;;483638;246;1307;-38
2022/03/25 07:32:41;;;;;;;;;;;21.40;28.90;;;;;;483631;246;1266;-38
2022/03/25 07:34:43;;;;;;;;;;;21.40;28.90;;;;;;483657;246;1090;-38
2022/03/25 07:36:44;;;;;;;;;;;21.40;28.90;;;;;;483665;246;1242;-38
2022/03/25 07:38:47;;;;;;;;;;;21.40;28.90;;;;;;483572;246;1237;-38
2022/03/25 07:40:48;;;;;;;;;;;21.40;28.90;;;;;;483526;246;1063;-38
2022/03/25 07:42:49;;;;;;;;;;;21.40;28.90;;;;;;483663;246;1342;-38
2022/03/25 07:44:51;;;;;;;;;;;21.40;28.90;;;;;;483627;246;2192;-38
2022/03/25 07:46:52;;;;;;;;;;;21.40;28.90;;;;;;483718;246;1140;-38
2022/03/25 07:48:53;;;;;;;;;;;21.40;28.80;;;;;;483886;246;1071;-38
2022/03/25 07:50:55;;;;;;;;;;;21.40;28.80;;;;;;483741;246;1107;-38
2022/03/25 07:52:56;;;;;;;;;;;21.40;28.90;;;;;;483908;246;1154;-38
2022/03/25 07:54:57;;;;;;;;;;;21.40;28.80;;;;;;483872;246;1271;-38
2022/03/25 07:56:59;;;;;;;;;;;21.40;28.90;;;;;;483595;246;1342;-38
2022/03/25 07:59:00;;;;;;;;;;;21.40;28.80;;;;;;483732;246;1211;-39
2022/03/25 08:01:02;;;;;;;;;;;21.40;28.80;;;;;;483556;246;1569;-38
2022/03/25 08:03:03;;;;;;;;;;;21.40;28.80;;;;;;483504;246;1206;-38
2022/03/25 08:05:05;;;;;;;;;;;21.40;28.80;;;;;;483566;246;2203;-38
2022/03/25 08:07:05;;;;;;;;;;;21.40;28.80;;;;;;483446;246;1533;-38
2022/03/25 08:09:07;;;;;;;;;;;21.40;28.80;;;;;;483454;246;1213;-38
2022/03/25 08:11:08;;;;;;;;;;;21.40;28.80;;;;;;483353;246;1199;-38
2022/03/25 08:13:10;;;;;;;;;;;21.50;28.80;;;;;;483456;246;1217;-38
2022/03/25 08:15:11;;;;;;;;;;;21.50;28.80;;;;;;483434;246;1216;-38
2022/03/25 08:17:12;;;;;;;;;;;21.50;28.80;;;;;;483570;246;1478;-38
2022/03/25 08:19:15;;;;;;;;;;;21.40;28.80;;;;;;483529;246;1205;-38
2022/03/25 08:21:15;;;;;;;;;;;21.40;28.80;;;;;;483384;241;2028;-38
2022/03/25 08:27:48;;;;;;;;;;;21.40;28.80;;;;;;483734;246;1178;-38
2022/03/25 08:27:50;;;;;;;;;;;21.40;28.80;;;;;;483548;246;1305;-38
2022/03/25 08:29:51;;;;;;;;;;;21.40;28.80;;;;;;483618;246;1360;-38
2022/03/25 08:31:52;;;;;;;;;;;21.40;28.80;;;;;;483479;246;1222;-38
2022/03/25 08:33:54;;;;;;;;;;;21.50;28.80;;;;;;483505;246;1200;-38
2022/03/25 08:35:55;;;;;;;;;;;21.40;28.80;;;;;;483596;246;1312;-38
2022/03/25 08:37:57;;;;;;;;;;;21.50;28.80;;;;;;483428;246;1240;-38
2022/03/25 08:39:58;;;;;;;;;;;21.50;28.80;;;;;;483477;246;1381;-38
2022/03/25 08:41:59;;;;;;;;;;;21.40;28.80;;;;;;483372;246;1074;-38
2022/03/25 08:44:00;;;;;;;;;;;21.40;28.80;;;;;;483313;246;1072;-38
2022/03/25 08:46:03;;;;;;;;;;;21.40;28.80;;;;;;483308;246;2199;-38
2022/03/25 08:48:03;;;;;;;;;;;21.50;28.80;;;;;;483387;246;2179;-38
2022/03/25 08:50:04;;;;;;;;;;;21.50;28.80;;;;;;483523;246;1078;-38
2022/03/25 08:52:06;;;;;;;;;;;21.50;28.70;;;;;;483508;246;1109;-38
2022/03/25 08:54:08;;;;;;;;;;;21.50;28.80;;;;;;483666;246;1206;-38
2022/03/25 08:56:10;;;;;;;;;;;21.50;28.80;;;;;;483500;246;2010;-38
2022/03/25 08:58:11;;;;;;;;;;;21.50;28.80;;;;;;483643;246;2316;-38
2022/03/25 09:00:12;;;;;;;;;;;21.50;28.80;;;;;;483655;246;2074;-38
2022/03/25 09:02:13;;;;;;;;;;;21.50;28.80;;;;;;483544;246;1222;-38
2022/03/25 09:04:14;;;;;;;;;;;21.50;28.80;;;;;;483480;246;1122;-38
2022/03/25 09:06:16;;;;;;;;;;;21.50;28.70;;;;;;483406;246;2195;-38
2022/03/25 09:08:18;;;;;;;;;;;21.50;28.70;;;;;;483374;246;1351;-38
2022/03/25 09:10:18;;;;;;;;;;;21.50;28.80;;;;;;483338;246;1362;-38
2022/03/25 09:12:20;;;;;;;;;;;21.50;28.70;;;;;;483488;246;1210;-38
2022/03/25 09:14:21;;;;;;;;;;;21.40;28.70;;;;;;483623;246;1051;-38
2022/03/25 09:16:22;;;;;;;;;;;21.50;28.80;;;;;;483548;246;1114;-38
2022/03/25 09:18:24;;;;;;;;;;;21.50;28.80;;;;;;483528;246;1111;-38
2022/03/25 09:20:25;;;;;;;;;;;21.50;28.70;;;;;;483430;246;1180;-38
2022/03/25 09:22:26;;;;;;;;;;;21.50;28.70;;;;;;483494;246;1200;-38
2022/03/25 09:24:28;;;;;;;;;;;21.50;28.70;;;;;;483710;246;1195;-38
2022/03/25 09:26:29;;;;;;;;;;;21.50;28.70;;;;;;483426;246;2183;-38
2022/03/25 09:28:30;;;;;;;;;;;21.50;28.80;;;;;;483429;246;1092;-38
2022/03/25 09:30:32;;;;;;;;;;;21.50;28.80;;;;;;483443;246;1091;-38
2022/03/25 09:32:33;;;;;;;;;;;21.50;28.80;;;;;;483615;246;1223;-38
2022/03/25 09:36:55;;;;;;;;;;;21.50;28.80;;;;;;483495;246;1346;-38
2022/03/25 09:38:57;;;;;;;;;;;21.50;28.70;;;;;;483519;246;1206;-38
2022/03/25 09:40:58;;;;;;;;;;;21.50;28.70;;;;;;483495;246;1250;-38
2022/03/25 09:43:00;;;;;;;;;;;21.50;28.70;;;;;;483424;246;1199;-38
2022/03/25 09:45:01;;;;;;;;;;;21.50;28.70;;;;;;483455;246;1068;-38
2022/03/25 09:47:03;;;;;;;;;;;21.50;28.70;;;;;;483462;246;2120;-38
2022/03/25 09:49:05;;;;;;;;;;;21.50;28.70;;;;;;483446;246;2156;-38
2022/03/25 09:51:05;;;;;;;;;;;21.50;28.70;;;;;;483327;246;2323;-38
2022/03/25 09:53:07;;;;;;;;;;;21.50;28.70;;;;;;483390;246;1082;-38
2022/03/25 09:55:08;;;;;;;;;;;21.50;28.70;;;;;;483246;246;1230;-38
2022/03/25 09:57:09;;;;;;;;;;;21.40;28.70;;;;;;483088;246;1172;-38
2022/03/25 09:59:11;;;;;;;;;;;21.50;28.70;;;;;;483266;246;1157;-38
2022/03/25 10:01:12;;;;;;;;;;;21.50;28.70;;;;;;483247;246;1315;-38
2022/03/25 10:03:13;;;;;;;;;;;21.50;28.70;;;;;;483833;246;1062;-38
2022/03/25 10:05:16;;;;;;;;;;;21.50;28.80;;;;;;483558;246;2121;-38
2022/03/25 10:07:17;;;;;;;;;;;21.50;28.80;;;;;;483325;246;1663;-38
2022/03/25 10:09:18;;;;;;;;;;;21.40;28.70;;;;;;483259;246;1157;-38
2022/03/25 10:11:19;;;;;;;;;;;21.50;28.80;;;;;;483284;246;1239;-38
2022/03/25 10:13:21;;;;;;;;;;;21.50;28.70;;;;;;483700;246;1094;-38
2022/03/25 10:15:22;;;;;;;;;;;21.50;28.80;;;;;;483632;246;1058;-38
2022/03/25 10:17:23;;;;;;;;;;;21.50;28.80;;;;;;483701;246;1545;-38
2022/03/25 10:19:25;;;;;;;;;;;21.40;28.70;;;;;;483635;246;1097;-38
2022/03/25 10:21:26;;;;;;;;;;;21.50;28.80;;;;;;483530;246;1216;-38
2022/03/25 10:23:27;;;;;;;;;;;21.50;28.80;;;;;;483443;246;1216;-38
2022/03/25 10:25:29;;;;;;;;;;;21.50;28.80;;;;;;483365;246;2153;-38
2022/03/25 10:27:30;;;;;;;;;;;21.50;28.80;;;;;;483575;246;1199;-38
2022/03/25 10:29:31;;;;;;;;;;;21.50;28.80;;;;;;483852;246;1045;-38
2022/03/25 10:31:33;;;;;;;;;;;21.50;28.80;;;;;;483510;246;1351;-38
2022/03/25 10:33:34;;;;;;;;;;;21.50;28.80;;;;;;483466;246;1116;-38
2022/03/25 10:35:36;;;;;;;;;;;21.50;28.80;;;;;;483560;246;1233;-39
2022/03/25 10:37:38;;;;;;;;;;;21.50;28.80;;;;;;483433;246;1316;-38
2022/03/25 10:39:39;;;;;;;;;;;21.40;28.80;;;;;;483378;246;2131;-38
2022/03/25 10:41:40;;;;;;;;;;;21.40;28.80;;;;;;483663;246;1193;-38
2022/03/25 10:43:41;;;;;;;;;;;21.50;28.80;;;;;;483625;246;1133;-39
2022/03/25 10:45:43;;;;;;;;;;;21.50;28.80;;;;;;483428;246;2188;-38
2022/03/25 10:47:44;;;;;;;;;;;21.50;28.80;;;;;;483421;246;1292;-38
2022/03/25 10:49:46;;;;;;;;;;;21.50;28.80;;;;;;483489;246;1043;-38
2022/03/25 10:51:47;;;;;;;;;;;21.50;28.80;;;;;;483272;246;2134;-38
2022/03/25 10:53:48;;;;;;;;;;;21.40;28.80;;;;;;483455;246;1030;-38
2022/03/25 10:55:49;;;;;;;;;;;21.50;28.80;;;;;;483293;246;1315;-38
2022/03/25 10:57:51;;;;;;;;;;;21.50;28.80;;;;;;483388;246;1318;-38
2022/03/25 10:59:52;;;;;;;;;;;21.50;28.80;;;;;;483406;246;1316;-38
2022/03/25 11:01:53;;;;;;;;;;;21.50;28.80;;;;;;483417;246;1330;-38
2022/03/25 11:03:55;;;;;;;;;;;21.50;28.70;;;;;;483418;246;1199;-38
2022/03/25 11:05:56;;;;;;;;;;;21.50;28.70;;;;;;483339;246;2185;-38
2022/03/25 11:07:57;;;;;;;;;;;21.40;28.80;;;;;;483871;246;1112;-38
2022/03/25 11:10:00;;;;;;;;;;;21.40;28.80;;;;;;483688;246;1209;-38
2022/03/25 11:12:00;;;;;;;;;;;21.50;28.80;;;;;;483452;246;1639;-38
2022/03/25 11:14:04;;;;;;;;;;;21.50;28.80;;;;;;483675;246;1091;-38
2022/03/25 11:16:03;;;;;;;;;;;21.50;28.80;;;;;;483380;246;2206;-38
2022/03/25 11:18:04;;;;;;;;;;;21.50;28.80;;;;;;483567;246;1127;-38
2022/03/25 11:20:05;;;;;;;;;;;21.40;28.80;;;;;;483505;246;1054;-38
2022/03/25 11:22:07;;;;;;;;;;;21.50;28.90;;;;;;483429;246;1266;-38
2022/03/25 11:24:08;;;;;;;;;;;21.40;28.80;;;;;;483627;246;1229;-38
2022/03/25 11:26:09;;;;;;;;;;;21.50;28.80;;;;;;483652;246;2203;-38
2022/03/25 11:28:11;;;;;;;;;;;21.50;28.80;;;;;;483523;246;1119;-38
2022/03/25 11:30:13;;;;;;;;;;;21.50;28.80;;;;;;483480;246;1105;-38
2022/03/25 11:32:14;;;;;;;;;;;21.40;28.80;;;;;;483528;246;1826;-38
2022/03/25 11:34:19;;;;;;;;;;;21.50;28.80;;;;;;483449;246;1165;-38
2022/03/25 11:36:18;;;;;;;;;;;21.40;28.80;;;;;;483073;241;2343;-38
2022/03/25 11:38:19;;;;;;;;;;;21.40;28.80;;;;;;483700;246;1465;-38
2022/03/25 11:40:22;;;;;;;;;;;21.40;28.80;;;;;;483533;246;1966;-38
2022/03/25 11:42:22;;;;;;;;;;;21.50;28.80;;;;;;483579;246;2326;-38
2022/03/25 11:44:26;;;;;;;;;;;21.50;28.80;;;;;;483586;246;1069;-38
2022/03/25 11:46:27;;;;;;;;;;;21.40;28.80;;;;;;483543;246;2188;-38
2022/03/25 11:48:29;;;;;;;;;;;21.50;28.80;;;;;;483596;246;1241;-38
2022/03/25 11:50:30;;;;;;;;;;;21.50;28.70;;;;;;483570;246;1068;-38
2022/03/25 11:52:32;;;;;;;;;;;21.50;28.70;;;;;;483446;246;1384;-38
2022/03/25 11:54:33;;;;;;;;;;;21.50;28.80;;;;;;483582;246;1168;-38
2022/03/25 11:56:34;;;;;;;;;;;21.50;28.70;;;;;;483540;246;1201;-38
2022/03/25 11:58:36;;;;;;;;;;;21.50;28.70;;;;;;483749;246;1050;-38
2022/03/25 12:00:37;;;;;;;;;;;21.50;28.70;;;;;;483544;246;1163;-38
2022/03/25 12:02:42;;;;;;;;;;;21.50;28.80;;;;;;483559;246;1268;-38